| time (UTC) | temp F | wind direction | speed knots | gust knots | rain 1hr in | rain 24hr in | rain mn in | humidity % | barometer mb |
| 20260507134547 | 54 | 333 | 2.6 | 7.8 | 0.00 | 0.80 | 0.17 | 72 | 1004.8 |
| 20260507133035 | 52 | 28 | 3.5 | 8.7 | 0.00 | 0.80 | 0.17 | 73 | 1005.2 |
| 20260507131536 | 52 | 17 | 4.3 | 11.3 | 0.00 | 0.80 | 0.17 | 78 | 1004.9 |
| 20260507130032 | 51 | 294 | 4.3 | 9.6 | 0.00 | 0.80 | 0.17 | 78 | 1004.9 |
| 20260507124527 | 50 | 14 | 3.5 | 9.6 | 0.00 | 0.80 | 0.17 | 81 | 1004.7 |
| 20260507123023 | 49 | 11 | 1.7 | 6.1 | 0.00 | 0.80 | 0.17 | 85 | 1004.7 |
| 20260507121521 | 48 | 12 | 1.7 | 7.0 | 0.00 | 0.80 | 0.17 | 86 | 1004.7 |
| 20260507120019 | 47 | 346 | 1.7 | 4.3 | 0.00 | 0.80 | 0.17 | 89 | 1005.0 |
| 20260507114525 | 46 | 336 | 0.9 | 5.2 | 0.00 | 0.80 | 0.17 | 90 | 1005.2 |
| 20260507113014 | 46 | 322 | 0.0 | 0.0 | 0.00 | 0.80 | 0.17 | 91 | 1006.2 |
| 20260507111519 | 45 | 322 | 0.0 | 4.3 | 0.00 | 0.80 | 0.17 | 91 | 1006.1 |
| 20260507110010 | 45 | 321 | 0.9 | 5.2 | 0.00 | 0.80 | 0.17 | 92 | 1005.6 |
| 20260507104508 | 45 | 355 | 2.6 | 5.2 | 0.00 | 0.80 | 0.17 | 92 | 1005.4 |
| 20260507103004 | 45 | 313 | 0.9 | 3.5 | 0.00 | 0.80 | 0.17 | 93 | 1005.0 |
| 20260507101507 | 46 | 314 | 0.0 | 5.2 | 0.00 | 0.80 | 0.17 | 93 | 1004.4 |
| 20260507100001 | 45 | 309 | 0.0 | 3.5 | 0.00 | 0.80 | 0.17 | 93 | 1004.6 |
| 20260507094619 | 45 | 302 | 1.7 | 5.2 | 0.00 | 0.80 | 0.17 | 93 | 1004.3 |
| 20260507093101 | 45 | 346 | 2.6 | 5.2 | 0.00 | 0.80 | 0.17 | 93 | 1004.5 |
| 20260507091635 | 45 | 317 | 1.7 | 4.3 | 0.00 | 0.80 | 0.17 | 93 | 1004.9 |
| 20260507090106 | 46 | 340 | 0.0 | 5.2 | 0.00 | 0.80 | 0.17 | 93 | 1004.7 |
| 20260507084555 | 46 | 332 | 1.7 | 7.0 | 0.00 | 0.80 | 0.17 | 93 | 1004.1 |
| 20260507083051 | 46 | 326 | 2.6 | 5.2 | 0.00 | 0.80 | 0.17 | 93 | 1004.0 |
| 20260507081549 | 47 | 350 | 1.7 | 7.8 | 0.00 | 0.80 | 0.17 | 94 | 1004.2 |
| 20260507080046 | 47 | 317 | 1.7 | 7.0 | 0.01 | 0.80 | 0.17 | 94 | 1004.1 |
| 20260507074547 | 47 | 360 | 0.9 | 6.1 | 0.01 | 0.80 | 0.17 | 94 | 1003.6 |
| 20260507073043 | 48 | 342 | 3.5 | 7.8 | 0.01 | 0.80 | 0.17 | 94 | 1003.4 |
| 20260507071540 | 48 | 355 | 0.0 | 5.2 | 0.01 | 0.80 | 0.17 | 94 | 1003.7 |
| 20260507070056 | 48 | 309 | 0.0 | 3.5 | 0.04 | 0.79 | 0.16 | 94 | 1003.4 |
| 20260507064539 | 48 | 307 | 0.0 | 7.0 | 0.14 | 0.79 | 0.16 | 94 | 1003.6 |
| 20260507063037 | 49 | 311 | 1.7 | 6.1 | 0.16 | 0.79 | 0.16 | 94 | 1003.2 |
| 20260507061536 | 49 | 302 | 4.3 | 9.6 | 0.16 | 0.79 | 0.16 | 94 | 1002.8 |
| 20260507060032 | 50 | 213 | 2.6 | 10.4 | 0.12 | 0.75 | 0.12 | 94 | 1004.1 |
| 20260507054529 | 50 | 238 | 1.7 | 7.0 | 0.02 | 0.66 | 0.02 | 94 | 1003.7 |
| 20260507053028 | 50 | 248 | 2.6 | 8.7 | 0.00 | 0.64 | 0.00 | 94 | 1003.0 |
| 20260507051536 | 50 | 223 | 0.0 | 5.2 | 0.00 | 0.64 | 0.00 | 94 | 1003.2 |
| 20260507050025 | 50 | 229 | 0.9 | 6.1 | 0.00 | 0.64 | 0.00 | 94 | 1003.3 |
| 20260507044526 | 50 | 256 | 2.6 | 6.1 | 0.00 | 0.65 | 0.00 | 94 | 1003.3 |
| 20260507043022 | 50 | 241 | 2.6 | 7.8 | 0.00 | 0.65 | 0.00 | 94 | 1003.2 |
| 20260507041519 | 50 | 202 | 0.9 | 5.2 | 0.01 | 0.65 | 0.00 | 94 | 1003.4 |
| 20260507040016 | 50 | 200 | 4.3 | 7.0 | 0.02 | 0.65 | 0.00 | 94 | 1003.5 |
| 20260507034525 | 50 | 229 | 1.7 | 7.0 | 0.03 | 0.65 | 0.65 | 94 | 1003.6 |
| 20260507033018 | 49 | 196 | 1.7 | 7.8 | 0.05 | 0.65 | 0.65 | 94 | 1003.6 |
| 20260507031513 | 49 | 183 | 1.7 | 7.8 | 0.06 | 0.64 | 0.64 | 93 | 1003.8 |
| 20260507030017 | 49 | 229 | 1.7 | 7.0 | 0.07 | 0.63 | 0.63 | 93 | 1003.9 |
| 20260507024518 | 49 | 164 | 3.5 | 9.6 | 0.10 | 0.62 | 0.62 | 93 | 1004.1 |
| 20260507023010 | 49 | 198 | 3.5 | 15.6 | 0.14 | 0.60 | 0.60 | 93 | 1004.3 |
| 20260507021508 | 49 | 210 | 4.3 | 11.3 | 0.17 | 0.57 | 0.57 | 94 | 1004.4 |
| 20260507020108 | 49 | 180 | 3.5 | 11.3 | 0.18 | 0.56 | 0.56 | 93 | 1004.6 |
| 20260507014506 | 49 | 149 | 3.5 | 13.0 | 0.17 | 0.52 | 0.52 | 93 | 1004.9 |
| 20260507013002 | 49 | 163 | 5.2 | 12.2 | 0.15 | 0.46 | 0.46 | 93 | 1005.5 |
| 20260507011600 | 49 | 146 | 1.7 | 9.6 | 0.14 | 0.41 | 0.41 | 93 | 1005.7 |
| 20260507010114 | 49 | 158 | 2.6 | 6.1 | 0.14 | 0.38 | 0.38 | 93 | 1006.0 |
| 20260507004557 | 48 | 173 | 1.7 | 10.4 | 0.16 | 0.35 | 0.35 | 93 | 1006.1 |
| 20260507003055 | 48 | 152 | 4.3 | 12.2 | 0.16 | 0.31 | 0.31 | 93 | 1006.4 |
| 20260507001559 | 48 | 140 | 4.3 | 12.2 | 0.15 | 0.27 | 0.27 | 93 | 1006.6 |
| 20260507000059 | 48 | 147 | 3.5 | 11.3 | 0.13 | 0.24 | 0.24 | 93 | 1006.9 |
| 20260506234559 | 49 | 171 | 3.5 | 8.7 | 0.09 | 0.19 | 0.19 | 92 | 1006.6 |
| 20260506233059 | 49 | 132 | 2.6 | 8.7 | 0.06 | 0.15 | 0.15 | 93 | 1006.8 |
| 20260506231549 | 49 | 216 | 3.5 | 11.3 | 0.05 | 0.12 | 0.12 | 93 | 1007.1 |
| 20260506230051 | 49 | 167 | 1.7 | 9.6 | 0.06 | 0.11 | 0.11 | 93 | 1006.8 |
| 20260506224551 | 48 | 187 | 3.5 | 13.0 | 0.07 | 0.10 | 0.10 | 92 | 1007.3 |
| 20260506223045 | 48 | 150 | 1.7 | 13.9 | 0.06 | 0.09 | 0.09 | 92 | 1007.1 |
| 20260506221546 | 48 | 135 | 3.5 | 9.6 | 0.05 | 0.07 | 0.07 | 92 | 1007.7 |
| 20260506220048 | 49 | 111 | 3.5 | 10.4 | 0.03 | 0.05 | 0.05 | 91 | 1007.9 |
| 20260506214539 | 49 | 142 | 2.6 | 9.6 | 0.01 | 0.03 | 0.03 | 90 | 1008.1 |
| 20260506213038 | 51 | 123 | 3.5 | 13.0 | 0.01 | 0.03 | 0.03 | 89 | 1008.0 |
| 20260506211546 | 52 | 200 | 3.5 | 10.4 | 0.00 | 0.02 | 0.02 | 89 | 1008.1 |
| 20260506210037 | 52 | 254 | 1.7 | 9.6 | 0.00 | 0.02 | 0.02 | 88 | 1008.0 |
| 20260506204536 | 52 | 209 | 1.7 | 10.4 | 0.00 | 0.02 | 0.02 | 89 | 1008.2 |
| 20260506203035 | 50 | 188 | 0.9 | 12.2 | 0.00 | 0.02 | 0.02 | 88 | 1008.3 |
| 20260506201534 | 50 | 98 | 1.7 | 9.6 | 0.00 | 0.02 | 0.02 | 87 | 1007.6 |
| 20260506200033 | 51 | 169 | 4.3 | 13.9 | 0.00 | 0.02 | 0.02 | 87 | 1007.7 |
| 20260506194536 | 51 | 228 | 4.3 | 10.4 | 0.00 | 0.02 | 0.02 | 87 | 1007.9 |
| 20260506193034 | 52 | 146 | 4.3 | 11.3 | 0.00 | 0.02 | 0.02 | 86 | 1007.8 |
| 20260506191529 | 52 | 135 | 1.7 | 9.6 | 0.00 | 0.02 | 0.02 | 87 | 1008.3 |
| 20260506190029 | 51 | 161 | 4.3 | 12.2 | 0.00 | 0.02 | 0.02 | 87 | 1008.4 |
| 20260506184527 | 51 | 140 | 2.6 | 14.8 | 0.00 | 0.02 | 0.02 | 87 | 1008.4 |
| 20260506183025 | 51 | 148 | 2.6 | 11.3 | 0.00 | 0.02 | 0.02 | 87 | 1008.6 |
| 20260506181527 | 51 | 128 | 3.5 | 9.6 | 0.00 | 0.02 | 0.02 | 86 | 1008.7 |
| 20260506180022 | 52 | 132 | 3.5 | 9.6 | 0.00 | 0.02 | 0.02 | 86 | 1008.8 |
| 20260506174522 | 52 | 194 | 3.5 | 10.4 | 0.00 | 0.02 | 0.02 | 85 | 1008.9 |
| 20260506173022 | 53 | 130 | 3.5 | 8.7 | 0.00 | 0.02 | 0.02 | 85 | 1009.2 |
| 20260506171522 | 53 | 195 | 3.5 | 8.7 | 0.00 | 0.02 | 0.02 | 85 | 1009.2 |
| 20260506170020 | 53 | 246 | 3.5 | 8.7 | 0.00 | 0.02 | 0.02 | 85 | 1009.4 |
| 20260506164521 | 53 | 136 | 4.3 | 13.0 | 0.00 | 0.02 | 0.02 | 85 | 1009.5 |
| 20260506163023 | 52 | 185 | 3.5 | 13.9 | 0.00 | 0.02 | 0.02 | 86 | 1009.9 |
| 20260506161519 | 52 | 226 | 3.5 | 12.2 | 0.00 | 0.02 | 0.02 | 86 | 1009.9 |
| 20260506160018 | 52 | 146 | 3.5 | 11.3 | 0.00 | 0.02 | 0.02 | 87 | 1010.0 |
| 20260506154516 | 52 | 157 | 2.6 | 9.6 | 0.00 | 0.02 | 0.02 | 87 | 1009.9 |
| 20260506153015 | 51 | 179 | 2.6 | 7.8 | 0.00 | 0.02 | 0.02 | 89 | 1009.6 |
| 20260506151514 | 51 | 167 | 2.6 | 10.4 | 0.00 | 0.02 | 0.02 | 89 | 1009.9 |
| 20260506150013 | 50 | 142 | 3.5 | 9.6 | 0.00 | 0.02 | 0.02 | 90 | 1010.3 |
| 20260506144525 | 50 | 160 | 3.5 | 8.7 | 0.00 | 0.02 | 0.02 | 90 | 1010.6 |
| 20260506143013 | 50 | 166 | 2.6 | 7.8 | 0.00 | 0.02 | 0.02 | 89 | 1010.8 |
| 20260506141512 | 51 | 172 | 2.6 | 11.3 | 0.00 | 0.02 | 0.02 | 89 | 1010.4 |
| 20260506140011 | 51 | 165 | 1.7 | 9.6 | 0.00 | 0.02 | 0.02 | 89 | 1010.4 |